Terminal Aerodrome Forecast
Issued by NWS Riverton, WY

Home | Current Version | Previous Version | Text Only | Print | Product List | Glossary On
Versions: 1 2 3 4 5 6 7 8 9 10 11 12 13 14 15 16 17 18 19 20 21
102
FTUS45 KRIW 280523
TAFRIW
TAF
KRIW 280523Z 2806/2906 02011KT 5SM -SN OVC025
      TEMPO 2806/2809 2SM -SN OVC018
     FM280900 02013KT 2SM -SN SCT008 OVC015
     FM281200 01013KT 1SM -SN OVC007
     FM282200 02012KT 4SM -SN OVC016
     FM290300 03008KT P6SM OVC026=

USA.gov is the U.S. government's official web portal to all federal, state and local government web resources and services.